Salt Lake City, Utah
Traffic Map
Current Weather Conditions
Salt Lake City, Utah
Scattered Clouds
Scattered Clouds
20°
Feels Like: 20°
Wind Chill: 20° Ceiling: Unl
Heat Index: 20° Visibility: 10mi
Dew Point: 12° Wind: 6mph
Humidity: 61% Direction: 170° (S)
Pressure: 30.12in Gusts: 0mph
Raw Report DataKSLC 010853Z 17005KT 10SM SCT170 20/12 A3012 RMK AO2 SLP145 T02000122 58002
Traffic Incident Summary
Active as of:
Severity:
Category:
InformationThere was an issue retrieving the traffic information for this location. Please try a different location or try again shortly.
Advertisements
Track Severe Weather on mobile